createdAt,value
2017-07-26T00:00:21.611Z,15.97
2017-07-26T00:05:18.714Z,15.90
2017-07-26T00:10:14.494Z,15.94
2017-07-26T00:15:10.379Z,15.88
2017-07-26T00:20:06.395Z,15.94
2017-07-26T00:25:02.385Z,16.02
2017-07-26T00:29:58.732Z,15.98
2017-07-26T00:34:54.590Z,16.05
2017-07-26T00:39:51.432Z,16.01
2017-07-26T00:44:47.118Z,16.10
2017-07-26T00:49:43.997Z,16.15
2017-07-26T00:54:40.100Z,16.20
2017-07-26T00:59:36.512Z,16.20
2017-07-26T01:04:32.695Z,16.26
2017-07-26T01:09:28.570Z,16.23
2017-07-26T01:14:24.679Z,16.17
2017-07-26T01:19:20.730Z,16.21
2017-07-26T01:24:16.227Z,16.17
2017-07-26T01:29:12.344Z,16.17
2017-07-26T01:34:09.369Z,16.16
2017-07-26T01:39:05.053Z,16.23
2017-07-26T01:49:02.043Z,16.26
2017-07-26T01:53:57.880Z,16.24
2017-07-26T01:58:53.408Z,16.26
2017-07-26T02:03:49.677Z,16.28
2017-07-26T02:08:45.553Z,16.31
2017-07-26T02:13:42.510Z,16.31
2017-07-26T02:18:39.072Z,16.23
2017-07-26T02:23:35.831Z,16.28
2017-07-26T02:28:32.415Z,16.28
2017-07-26T02:33:30.897Z,16.32
2017-07-26T02:38:26.513Z,16.28
2017-07-26T02:43:27.471Z,16.32
2017-07-26T02:48:23.287Z,16.31
2017-07-26T02:53:19.008Z,16.35
2017-07-26T02:58:14.810Z,16.36
2017-07-26T03:03:10.925Z,16.35
2017-07-26T03:08:06.823Z,16.36
2017-07-26T03:13:02.915Z,16.41
2017-07-26T03:17:58.754Z,16.43
2017-07-26T03:22:55.833Z,16.42
2017-07-26T03:27:51.262Z,16.32
2017-07-26T03:32:47.227Z,16.38
2017-07-26T03:37:44.598Z,16.26
2017-07-26T03:42:39.895Z,16.29
2017-07-26T03:47:36.758Z,16.16
2017-07-26T03:52:32.408Z,16.20
2017-07-26T03:57:29.388Z,16.20
2017-07-26T04:02:26.145Z,16.10
2017-07-26T04:07:21.819Z,16.20
2017-07-26T04:12:17.733Z,16.09
2017-07-26T04:17:13.920Z,16.08
2017-07-26T04:22:09.894Z,16.05
2017-07-26T04:27:05.844Z,16.10
2017-07-26T04:32:03.087Z,16.16
2017-07-26T04:36:58.901Z,16.10
2017-07-26T04:41:55.631Z,16.17
2017-07-26T04:46:52.558Z,16.33
2017-07-26T04:51:48.177Z,16.43
2017-07-26T04:56:45.398Z,16.32
2017-07-26T05:01:42.816Z,16.31
2017-07-26T05:06:38.492Z,16.42
2017-07-26T05:11:35.577Z,16.43
2017-07-26T05:16:31.273Z,16.38
2017-07-26T05:21:27.375Z,16.43
2017-07-26T05:26:23.167Z,16.38
2017-07-26T05:31:20.416Z,16.35
2017-07-26T05:36:16.112Z,16.33
2017-07-26T05:41:13.082Z,16.39
2017-07-26T05:46:09.777Z,16.50
2017-07-26T05:51:06.041Z,16.64
2017-07-26T05:56:02.168Z,16.75
2017-07-26T06:00:59.440Z,16.89
2017-07-26T06:05:55.586Z,17.27
2017-07-26T06:10:52.814Z,17.41
2017-07-26T06:15:49.632Z,17.56
2017-07-26T06:20:46.651Z,17.64
2017-07-26T06:25:42.179Z,17.72
2017-07-26T06:30:38.509Z,17.89
2017-07-26T06:35:35.303Z,17.98
2017-07-26T06:40:31.325Z,18.00
2017-07-26T06:45:28.483Z,18.18
2017-07-26T06:50:24.427Z,18.28
2017-07-26T06:55:21.110Z,18.22
2017-07-26T07:00:19.182Z,18.15
2017-07-26T07:05:14.340Z,18.19
2017-07-26T07:10:10.036Z,18.19
2017-07-26T07:15:06.255Z,18.13
2017-07-26T07:20:02.023Z,18.20
2017-07-26T07:24:58.193Z,18.29
2017-07-26T07:29:54.425Z,18.45
2017-07-26T07:34:52.304Z,18.56
2017-07-26T07:39:48.681Z,18.60
2017-07-26T07:44:44.468Z,18.66
2017-07-26T07:49:42.352Z,18.95
2017-07-26T07:54:38.574Z,19.15
2017-07-26T07:59:36.090Z,20.03
2017-07-26T08:04:33.461Z,20.24
2017-07-26T08:09:31.430Z,20.39
2017-07-26T08:14:29.628Z,20.99
2017-07-26T08:19:27.902Z,22.15
2017-07-26T08:24:26.589Z,22.83
2017-07-26T08:29:23.570Z,23.17
2017-07-26T08:34:20.267Z,22.26
2017-07-26T08:39:17.699Z,22.59
2017-07-26T08:44:13.550Z,22.76
2017-07-26T08:49:11.105Z,22.90
2017-07-26T08:54:07.714Z,23.34
2017-07-26T08:59:04.663Z,23.81
2017-07-26T09:04:02.580Z,23.86
2017-07-26T09:08:57.271Z,23.18
2017-07-26T09:13:55.720Z,23.34
2017-07-26T09:18:51.035Z,23.59
2017-07-26T09:23:47.581Z,23.21
2017-07-26T09:28:43.803Z,23.12
2017-07-26T09:33:40.596Z,23.92
2017-07-26T09:38:37.333Z,23.59
2017-07-26T09:43:32.593Z,23.43
2017-07-26T09:48:27.846Z,22.84
2017-07-26T09:53:24.712Z,22.81
2017-07-26T09:58:22.022Z,23.24
2017-07-26T10:03:18.641Z,23.80
2017-07-26T10:08:15.596Z,24.01
2017-07-26T10:13:12.050Z,24.39
2017-07-26T10:18:05.738Z,23.27
2017-07-26T10:23:00.672Z,22.87
2017-07-26T10:27:59.468Z,23.50
2017-07-26T10:32:56.974Z,24.65
2017-07-26T10:37:53.947Z,24.30
2017-07-26T10:42:51.072Z,23.91
2017-07-26T10:47:44.917Z,23.65
2017-07-26T10:52:38.934Z,22.98
2017-07-26T10:57:33.412Z,22.57
2017-07-26T11:02:32.448Z,23.13
2017-07-26T11:07:30.877Z,23.21
2017-07-26T11:12:27.515Z,23.91
2017-07-26T11:17:25.404Z,24.35
2017-07-26T11:22:22.133Z,24.50
2017-07-26T11:27:21.186Z,24.88
2017-07-26T11:32:19.406Z,24.95
2017-07-26T11:37:16.743Z,24.91
2017-07-26T11:42:14.918Z,24.76
2017-07-26T11:52:09.632Z,25.04
2017-07-26T11:57:07.412Z,25.26
2017-07-26T12:02:06.310Z,25.23
2017-07-26T12:07:02.927Z,25.60
2017-07-26T12:12:00.212Z,25.69
2017-07-26T12:16:57.416Z,24.98
2017-07-26T12:21:54.280Z,25.18
2017-07-26T12:26:50.144Z,25.66
2017-07-26T12:31:43.952Z,25.16
2017-07-26T12:36:43.147Z,25.01
2017-07-26T12:41:39.381Z,25.11
2017-07-26T12:46:36.494Z,25.31
2017-07-26T12:51:32.561Z,25.50
2017-07-26T12:56:28.748Z,25.40
2017-07-26T13:01:24.972Z,25.65
2017-07-26T13:06:20.849Z,25.35
2017-07-26T13:11:17.697Z,25.44
2017-07-26T13:16:12.320Z,25.29
2017-07-26T13:21:09.698Z,25.59
2017-07-26T13:26:05.785Z,25.47
2017-07-26T13:31:01.355Z,25.13
2017-07-26T13:35:57.382Z,25.16
2017-07-26T13:40:53.879Z,25.31
2017-07-26T13:45:49.412Z,25.62
2017-07-26T13:50:46.192Z,25.33
2017-07-26T13:55:41.508Z,25.81
2017-07-26T14:00:37.292Z,25.58
2017-07-26T14:05:33.303Z,25.16
2017-07-26T14:10:28.323Z,24.66
2017-07-26T14:15:24.941Z,24.39
2017-07-26T14:20:20.570Z,23.96
2017-07-26T14:25:15.710Z,23.92
2017-07-26T14:30:11.141Z,23.86
2017-07-26T14:35:07.000Z,23.84
2017-07-26T14:40:04.912Z,23.66
2017-07-26T14:45:01.057Z,23.74
2017-07-26T14:49:57.909Z,23.65
2017-07-26T14:54:54.068Z,23.80
2017-07-26T14:59:51.078Z,23.74
2017-07-26T15:04:47.784Z,23.80
2017-07-26T15:09:43.440Z,23.71
2017-07-26T15:14:39.134Z,23.66
2017-07-26T15:19:37.295Z,23.51
2017-07-26T15:24:32.747Z,23.54
2017-07-26T15:29:29.831Z,23.63
2017-07-26T15:34:25.454Z,23.62
2017-07-26T15:39:21.202Z,23.55
2017-07-26T15:44:17.153Z,23.32
2017-07-26T15:49:14.320Z,23.40
2017-07-26T15:54:13.194Z,23.55
2017-07-26T15:59:08.879Z,23.54
2017-07-26T16:04:06.081Z,23.61
2017-07-26T16:09:01.669Z,23.18
2017-07-26T16:19:00.960Z,23.28
2017-07-26T16:23:58.493Z,23.25
2017-07-26T16:28:56.256Z,23.27
2017-07-26T16:33:51.759Z,23.17
2017-07-26T16:43:48.090Z,23.21
2017-07-26T16:48:43.958Z,23.28
2017-07-26T16:53:40.288Z,23.12
2017-07-26T16:58:36.404Z,23.03
2017-07-26T17:03:34.378Z,22.98
2017-07-26T17:08:33.080Z,23.10
2017-07-26T17:13:29.240Z,23.00
2017-07-26T17:18:27.158Z,22.91
2017-07-26T17:23:22.563Z,22.87
2017-07-26T17:28:18.432Z,22.75
2017-07-26T17:33:15.319Z,22.57
2017-07-26T17:38:12.067Z,22.57
2017-07-26T17:43:07.823Z,22.57
2017-07-26T17:48:03.935Z,22.53
2017-07-26T17:53:00.202Z,22.45
2017-07-26T17:57:56.942Z,22.33
2017-07-26T18:02:55.025Z,22.29
2017-07-26T18:07:50.332Z,22.25
2017-07-26T18:12:46.052Z,22.14
2017-07-26T18:17:42.153Z,22.04
2017-07-26T18:22:39.137Z,21.80
2017-07-26T18:27:34.874Z,21.79
2017-07-26T18:32:31.513Z,21.75
2017-07-26T18:37:29.695Z,21.79
2017-07-26T18:42:26.326Z,21.72
2017-07-26T18:47:21.935Z,21.72
2017-07-26T18:52:17.682Z,21.62
2017-07-26T18:57:13.675Z,21.54
2017-07-26T19:07:11.349Z,21.35
2017-07-26T19:12:08.045Z,21.27
2017-07-26T19:17:03.875Z,21.21
2017-07-26T19:22:00.491Z,21.12
2017-07-26T19:26:58.275Z,21.11
2017-07-26T19:31:53.382Z,21.02
2017-07-26T19:36:49.582Z,20.87
2017-07-26T19:41:46.461Z,20.82
2017-07-26T19:46:42.312Z,20.81
2017-07-26T19:51:38.366Z,20.78
2017-07-26T19:56:34.583Z,20.77
2017-07-26T20:01:31.698Z,20.82
2017-07-26T20:06:28.150Z,20.77
2017-07-26T20:11:24.170Z,20.72
2017-07-26T20:16:20.465Z,20.69
2017-07-26T20:21:17.456Z,20.67
2017-07-26T20:26:14.394Z,20.60
2017-07-26T20:31:10.213Z,20.52
2017-07-26T20:36:05.995Z,20.52
2017-07-26T20:41:02.064Z,20.34
2017-07-26T20:45:59.467Z,20.36
2017-07-26T20:50:54.916Z,20.29
2017-07-26T20:55:51.094Z,20.14
2017-07-26T21:00:48.258Z,20.22
2017-07-26T21:05:43.679Z,20.13
2017-07-26T21:10:39.421Z,20.02
2017-07-26T21:15:35.795Z,20.02
2017-07-26T21:20:32.002Z,20.00
2017-07-26T21:25:29.281Z,19.95
2017-07-26T21:30:26.065Z,19.94
2017-07-26T21:35:22.620Z,19.89
2017-07-26T21:40:23.577Z,19.86
2017-07-26T21:45:19.246Z,19.95
2017-07-26T21:50:15.523Z,19.99
2017-07-26T21:55:11.420Z,20.07
2017-07-26T22:00:07.305Z,20.03
2017-07-26T22:05:04.287Z,20.06
2017-07-26T22:10:01.143Z,20.13
2017-07-26T22:14:56.904Z,20.19
2017-07-26T22:19:54.180Z,20.22
2017-07-26T22:24:49.861Z,20.28
2017-07-26T22:29:46.599Z,20.25
2017-07-26T22:34:42.973Z,20.21
2017-07-26T22:39:40.216Z,20.21
2017-07-26T22:44:37.382Z,20.14
2017-07-26T22:49:34.037Z,20.19
2017-07-26T22:54:30.325Z,20.19
2017-07-26T22:59:27.988Z,20.03
2017-07-26T23:04:24.631Z,20.06
2017-07-26T23:14:21.862Z,20.10
2017-07-26T23:19:19.489Z,20.09
2017-07-26T23:24:17.125Z,20.18
2017-07-26T23:29:13.002Z,20.24
2017-07-26T23:34:10.682Z,20.31
2017-07-26T23:39:07.376Z,20.32
2017-07-26T23:44:10.359Z,20.26
2017-07-26T23:49:12.265Z,20.31
2017-07-26T23:54:07.816Z,20.31
2017-07-26T23:59:03.707Z,20.26
